Time;durP1;ratioP1;P1;durP2;ratioP2;P2;SDS_P1;SDS_P2;PMS_P1;PMS_P2;Temp;Humidity;BMP_temperature;BMP_pressure;BME280_temperature;BME280_humidity;BME280_pressure;Samples;Min_cycle;Max_cycle;Signal;HPM_P1;HPM_P2
2021/11/12 00:03:20;;;;;;;14.33;9.78;;;;;;;9.84;80.54;101683.70;1690643;84;22257;-73
2021/11/12 00:13:47;;;;;;;11.20;7.70;;;;;;;9.92;80.48;101688.87;1690587;84;21217;-72
2021/11/12 00:16:18;;;;;;;12.45;7.97;;;;;;;9.92;80.42;101687.55;1661491;83;21116;-72
2021/11/12 00:18:44;;;;;;;10.25;6.95;;;;;;;9.89;80.22;101679.52;1690523;84;21851;-72
2021/11/12 00:21:13;;;;;;;10.72;8.65;;;;;;;9.82;80.16;101678.38;1690600;84;21084;-72
2021/11/12 00:23:39;;;;;;;11.65;7.92;;;;;;;9.81;80.33;101680.51;1690602;83;21080;-72
2021/11/12 00:26:08;;;;;;;9.23;7.33;;;;;;;9.82;80.37;101679.69;1690445;83;21275;-72
2021/11/12 00:28:39;;;;;;;9.15;6.92;;;;;;;9.80;80.25;101670.84;1690835;84;21077;-72
2021/11/12 00:39:19;;;;;;;10.93;6.80;;;;;;;9.78;80.39;101667.25;1690145;83;21136;-73
2021/11/12 00:41:49;;;;;;;9.73;7.08;;;;;;;9.86;80.41;101675.47;1688738;83;21057;-73
2021/11/12 00:44:29;;;;;;;11.08;7.33;;;;;;;9.89;80.36;101678.20;1660628;84;21136;-73
2021/11/12 00:46:53;;;;;;;10.20;7.53;;;;;;;9.91;80.29;101681.40;1688478;84;21625;-73
2021/11/12 00:49:23;;;;;;;10.53;6.72;;;;;;;9.95;80.29;101675.86;1690194;83;21582;-73
2021/11/12 00:52:00;;;;;;;11.65;7.20;;;;;;;9.97;80.24;101681.19;1689837;84;21579;-72
2021/11/12 00:54:17;;;;;;;10.90;6.47;;;;;;;10.01;80.27;101684.42;1686926;84;21002;-73
2021/11/12 00:56:44;;;;;;;10.03;6.55;;;;;;;10.05;80.23;101691.60;1661412;84;21813;-73
2021/11/12 00:59:11;;;;;;;9.35;6.15;;;;;;;10.08;80.20;101683.42;1690421;83;21081;-73
2021/11/12 01:01:39;;;;;;;12.73;6.70;;;;;;;10.11;80.15;101674.33;1659881;84;21562;-73
2021/11/12 01:04:09;;;;;;;7.10;5.53;;;;;;;10.15;80.08;101674.04;1690689;83;21053;-73
2021/11/12 01:06:37;;;;;;;8.90;6.58;;;;;;;10.17;79.95;101670.16;1690901;83;21144;-72
2021/11/12 01:09:06;;;;;;;9.68;6.17;;;;;;;10.17;79.88;101678.05;1690676;83;21808;-73
2021/11/12 01:11:36;;;;;;;11.40;6.22;;;;;;;10.17;79.78;101690.78;1690263;84;21077;-72
2021/11/12 01:14:01;;;;;;;7.70;6.05;;;;;;;10.11;79.53;101683.53;1690306;84;21069;-72
2021/11/12 01:16:28;;;;;;;9.23;5.92;;;;;;;10.03;79.54;101677.49;1690628;84;21669;-72
2021/11/12 01:18:56;;;;;;;10.58;5.83;;;;;;;10.03;79.78;101681.44;1690651;83;21089;-72
2021/11/12 01:21:24;;;;;;;9.68;6.00;;;;;;;10.05;79.83;101687.23;1690476;84;21786;-72
2021/11/12 01:23:52;;;;;;;11.48;6.22;;;;;;;10.07;79.84;101689.51;1690523;83;21618;-72
2021/11/12 01:26:21;;;;;;;9.83;6.15;;;;;;;10.10;79.86;101696.66;1690638;83;21054;-72
2021/11/12 01:28:47;;;;;;;11.03;6.30;;;;;;;10.13;79.80;101699.39;1690644;84;21084;-72
2021/11/12 01:31:14;;;;;;;13.25;6.28;;;;;;;10.15;79.83;101699.03;1690807;84;21120;-72
2021/11/12 01:33:42;;;;;;;8.55;5.92;;;;;;;10.17;79.78;101696.47;1690815;83;21974;-72
2021/11/12 01:36:26;;;;;;;9.18;5.87;;;;;;;10.17;79.72;101699.99;1690641;83;21515;-72
2021/11/12 01:38:43;;;;;;;;;;;;;;;10.18;79.69;101703.12;1690870;83;21085;-72
2021/11/12 01:41:10;;;;;;;9.05;5.95;;;;;;;10.18;79.57;101703.12;1690664;83;21356;-72
2021/11/12 01:43:42;;;;;;;9.40;5.90;;;;;;;10.15;79.55;101688.52;1690167;84;21081;-72
2021/11/12 01:54:49;;;;;;;7.72;5.03;;;;;;;10.16;79.51;101689.01;1666796;84;21561;-73
2021/11/12 01:56:30;;;;;;;12.10;4.83;;;;;;;10.18;79.50;101696.55;1685481;84;21076;-73
2021/11/12 02:01:49;;;;;;;9.40;5.05;;;;;;;10.23;79.44;101684.87;1695626;83;21076;-73
2021/11/12 02:04:23;;;;;;;11.78;4.62;;;;;;;10.24;79.37;101687.58;1695637;83;21076;-73
2021/11/12 02:06:50;;;;;;;9.53;5.25;;;;;;;10.27;79.27;101694.72;1695319;83;22086;-73
2021/11/12 02:09:20;;;;;;;9.23;4.83;;;;;;;10.27;79.24;101695.61;1695894;84;21092;-73
2021/11/12 02:12:00;;;;;;;10.03;4.60;;;;;;;10.27;79.12;101692.98;1695536;83;22653;-73
2021/11/12 02:14:22;;;;;;;10.43;4.70;;;;;;;10.27;79.09;101704.83;1693891;83;21139;-73
2021/11/12 02:17:02;;;;;;;9.55;4.90;;;;;;;10.26;79.07;101700.80;1667890;84;21601;-73
2021/11/12 02:19:27;;;;;;;10.18;5.03;;;;;;;10.22;78.88;101698.46;1695211;84;21077;-73
2021/11/12 02:22:07;;;;;;;10.00;5.03;;;;;;;10.14;78.73;101697.25;1695682;84;21590;-73
2021/11/12 02:24:30;;;;;;;7.75;5.12;;;;;;;10.04;78.63;101699.00;1693809;84;21790;-73
2021/11/12 02:27:00;;;;;;;8.93;4.40;;;;;;;9.95;78.75;101707.81;1695661;84;21476;-73
2021/11/12 02:29:27;;;;;;;11.45;4.60;;;;;;;9.89;78.90;101706.73;1695419;84;21112;-72
2021/11/12 02:31:54;;;;;;;10.58;4.58;;;;;;;9.90;79.04;101705.00;1695634;84;21049;-73
2021/11/12 02:34:21;;;;;;;10.00;3.72;;;;;;;9.88;79.01;101700.98;1695603;84;21120;-73
2021/11/12 02:36:53;;;;;;;7.97;3.90;;;;;;;9.85;79.00;101715.73;1695789;83;21780;-72
2021/11/12 02:39:16;;;;;;;7.28;3.05;;;;;;;9.83;78.99;101716.97;1694574;83;21095;-72
2021/11/12 02:41:43;;;;;;;8.10;3.42;;;;;;;9.82;79.08;101722.19;1695717;83;21547;-73
2021/11/12 02:44:12;;;;;;;10.05;3.62;;;;;;;9.80;79.04;101715.55;1695208;83;21069;-72
2021/11/12 02:46:41;;;;;;;7.72;3.50;;;;;;;9.77;78.99;101711.87;1695725;84;21432;-72
2021/11/12 02:49:09;;;;;;;10.95;4.10;;;;;;;9.73;78.96;101709.10;1693452;83;21848;-72
2021/11/12 02:51:38;;;;;;;11.78;3.70;;;;;;;9.66;78.87;101709.66;1691224;84;21086;-72
2021/11/12 02:54:09;;;;;;;9.00;3.72;;;;;;;9.60;78.86;101710.71;1676357;85;21038;-73
2021/11/12 02:56:35;;;;;;;8.70;3.02;;;;;;;9.52;78.80;101709.48;1675952;85;21146;-73
2021/11/12 02:59:06;;;;;;;10.28;3.50;;;;;;;9.42;78.82;101717.38;1691662;84;21614;-73
2021/11/12 03:01:35;;;;;;;9.80;2.90;;;;;;;9.34;78.83;101727.51;1691650;84;21757;-73
2021/11/12 03:04:05;;;;;;;5.12;2.62;;;;;;;9.26;78.96;101726.70;1691949;84;21608;-73
2021/11/12 03:06:33;;;;;;;10.63;3.55;;;;;;;9.19;79.04;101718.05;1691851;84;22239;-73
2021/11/12 03:09:05;;;;;;;7.92;2.67;;;;;;;9.14;79.15;101730.95;1691821;84;21605;-73
2021/11/12 03:11:32;;;;;;;9.93;2.83;;;;;;;9.08;79.16;101730.67;1691586;84;21599;-73
2021/11/12 03:13:58;;;;;;;10.75;3.58;;;;;;;9.02;79.23;101725.14;1691946;83;21369;-72
2021/11/12 03:16:25;;;;;;;11.20;3.90;;;;;;;8.96;79.30;101723.12;1691849;84;21031;-72
2021/11/12 03:18:55;;;;;;;8.20;3.27;;;;;;;8.90;79.33;101721.53;1691959;84;21042;-72
2021/11/12 03:21:24;;;;;;;8.00;3.25;;;;;;;8.85;79.45;101726.97;1691872;84;21087;-72
2021/11/12 03:23:58;;;;;;;9.48;2.92;;;;;;;8.80;79.52;101718.86;1692185;84;21070;-72
2021/11/12 04:01:48;;;;;;;9.50;3.15;;;;;;;8.58;80.69;101755.00;1670564;84;21081;-72
2021/11/12 04:04:38;;;;;;;9.15;4.00;;;;;;;8.66;80.68;101758.89;1669743;85;21101;-72
2021/11/12 04:07:17;;;;;;;9.88;3.77;;;;;;;8.70;80.64;101764.77;1669350;84;21746;-73
2021/11/12 04:20:31;;;;;;;17.77;7.33;;;;;;;8.97;80.48;101773.48;1670504;84;21776;-73
2021/11/12 04:50:03;;;;;;;17.45;6.28;;;;;;;9.05;80.18;101783.08;1571688;89;21150;-73
2021/11/12 05:09:36;;;;;;;12.37;3.95;;;;;;;8.95;80.20;101776.06;1688617;83;21072;-76
2021/11/12 05:11:42;;;;;;;11.50;4.10;;;;;;;9.00;80.22;101789.40;1661868;85;21567;-74
2021/11/12 05:44:15;;;;;;;13.65;3.87;;;;;;;8.75;80.05;101803.08;1662022;86;21094;-72
2021/11/12 05:46:41;;;;;;;10.15;3.80;;;;;;;8.63;79.95;101815.16;1675035;84;21129;-73
2021/11/12 05:57:25;;;;;;;12.80;3.98;;;;;;;8.20;80.03;101823.85;1635254;86;21102;-74
2021/11/12 05:59:52;;;;;;;12.05;3.70;;;;;;;8.11;80.23;101828.23;1664106;84;21528;-78
2021/11/12 06:02:19;;;;;;;10.90;4.33;;;;;;;8.07;80.56;101825.85;1664155;84;21133;-76
2021/11/12 06:04:45;;;;;;;8.53;3.70;;;;;;;8.05;80.70;101824.88;1662875;84;21125;-72
2021/11/12 06:07:12;;;;;;;12.78;3.30;;;;;;;8.01;80.59;101832.06;1683430;83;22581;-72
2021/11/12 06:09:41;;;;;;;12.23;3.87;;;;;;;7.95;80.63;101830.44;1654055;85;21081;-72
2021/11/12 06:12:12;;;;;;;10.48;3.50;;;;;;;7.88;80.59;101824.38;1683049;83;21105;-72
2021/11/12 06:14:37;;;;;;;9.05;4.22;;;;;;;7.79;80.54;101825.70;1682874;83;21578;-73
2021/11/12 06:17:05;;;;;;;12.60;4.65;;;;;;;7.70;80.58;101830.86;1683135;85;21105;-73
2021/11/12 06:19:31;;;;;;;9.80;3.62;;;;;;;7.64;80.75;101833.13;1683782;84;21756;-73
2021/11/12 06:21:58;;;;;;;8.90;4.00;;;;;;;7.58;80.86;101832.38;1685216;85;21070;-72
2021/11/12 06:24:25;;;;;;;15.20;5.03;;;;;;;7.53;80.89;101837.80;1722836;81;21148;-72
2021/11/12 06:26:53;;;;;;;16.60;5.65;;;;;;;7.53;81.19;101844.36;1722839;83;21102;-72
2021/11/12 06:29:20;;;;;;;16.30;4.90;;;;;;;7.54;81.38;101839.17;1722759;83;21118;-72
2021/11/12 06:31:46;;;;;;;11.22;4.30;;;;;;;7.58;81.57;101852.03;1722798;83;21736;-72
2021/11/12 06:34:13;;;;;;;11.28;4.10;;;;;;;7.61;81.58;101850.02;1722725;83;21067;-72
2021/11/12 06:36:40;;;;;;;11.00;4.28;;;;;;;7.63;81.66;101845.34;1722642;83;21103;-72
2021/11/12 06:39:08;;;;;;;13.78;4.42;;;;;;;7.68;81.71;101844.30;1722723;83;21082;-72
2021/11/12 06:52:23;;;;;;;9.03;3.92;;;;;;;7.89;81.69;101855.02;1691626;83;21083;-73
2021/11/12 06:54:52;;;;;;;14.47;4.90;;;;;;;7.92;81.63;101852.55;1655634;85;21721;-73
2021/11/12 06:57:19;;;;;;;14.85;4.85;;;;;;;7.95;81.65;101853.61;1664583;86;21763;-72
2021/11/12 06:59:47;;;;;;;13.35;5.05;;;;;;;8.00;81.68;101855.61;1664553;86;21117;-72
2021/11/12 07:02:15;;;;;;;9.35;3.92;;;;;;;8.03;81.72;101859.68;1664757;84;21707;-72
2021/11/12 07:04:42;;;;;;;13.72;4.20;;;;;;;8.09;81.71;101858.30;1664498;86;21588;-72
2021/11/12 07:07:09;;;;;;;10.68;4.30;;;;;;;8.15;81.70;101855.99;1664769;86;21106;-72
2021/11/12 07:09:36;;;;;;;17.20;4.55;;;;;;;8.22;81.69;101864.17;1664781;86;22641;-72
2021/11/12 07:12:03;;;;;;;12.75;4.55;;;;;;;8.31;81.67;101862.03;1664450;84;21061;-72
2021/11/12 07:14:30;;;;;;;16.65;4.60;;;;;;;8.41;81.66;101867.34;1664539;85;21399;-72
2021/11/12 07:16:57;;;;;;;17.75;3.80;;;;;;;8.49;81.64;101870.00;1664615;86;21152;-72
2021/11/12 07:19:24;;;;;;;12.55;4.10;;;;;;;8.59;81.53;101871.36;1664644;84;21117;-72
2021/11/12 07:21:52;;;;;;;12.40;4.35;;;;;;;8.64;81.40;101864.22;1664566;86;23253;-72
2021/11/12 07:24:21;;;;;;;15.00;5.87;;;;;;;8.71;81.31;101863.70;1664629;86;21086;-72
2021/11/12 07:26:47;;;;;;;25.62;6.90;;;;;;;8.79;81.33;101858.84;1664664;86;21090;-72
2021/11/12 07:29:14;;;;;;;15.55;6.10;;;;;;;8.84;81.19;101866.54;1664784;85;21599;-72
2021/11/12 07:31:42;;;;;;;13.50;4.40;;;;;;;8.90;81.15;101868.57;1664720;86;21093;-72
2021/11/12 07:34:08;;;;;;;13.90;3.87;;;;;;;8.94;81.01;101871.41;1637683;86;21782;-72
2021/11/12 07:36:40;;;;;;;18.35;4.40;;;;;;;8.99;80.87;101873.36;1664659;86;21086;-72
2021/11/12 07:39:22;;;;;;;15.60;3.80;;;;;;;9.01;80.80;101868.69;1664808;86;21678;-72
2021/11/12 07:47:10;;;;;;;12.28;4.37;;;;;;;9.17;80.60;101866.80;1633922;86;22683;-73
2021/11/12 07:49:31;;;;;;;19.25;4.90;;;;;;;9.20;80.52;101865.66;1663542;86;21118;-73
2021/11/12 07:51:58;;;;;;;18.32;4.67;;;;;;;9.20;80.42;101873.11;1691250;84;21084;-73
2021/11/12 07:54:25;;;;;;;10.82;3.87;;;;;;;9.25;80.37;101878.57;1691825;84;21346;-73
2021/11/12 07:56:51;;;;;;;19.07;4.62;;;;;;;9.25;80.22;101874.63;1691853;84;21107;-73
2021/11/12 07:59:18;;;;;;;17.35;4.67;;;;;;;9.27;80.24;101875.60;1682264;85;22594;-73
2021/11/12 08:01:45;;;;;;;16.50;4.03;;;;;;;9.25;80.14;101866.36;1664687;86;21097;-73
2021/11/12 08:04:12;;;;;;;17.05;6.40;;;;;;;9.34;80.05;101881.23;1664865;85;21093;-73
2021/11/12 08:06:39;;;;;;;12.75;4.03;;;;;;;9.40;80.00;101876.67;1664891;84;21102;-73
2021/11/12 08:09:15;;;;;;;13.75;3.67;;;;;;;9.46;79.96;101878.69;1665269;86;21101;-73
2021/11/12 08:11:51;;;;;;;20.20;4.20;;;;;;;9.49;79.79;101874.91;1664870;86;21154;-73
2021/11/12 08:14:24;;;;;;;15.65;4.65;;;;;;;9.54;79.75;101882.61;1664412;86;21572;-73
2021/11/12 08:19:20;;;;;;;20.57;4.12;;;;;;;9.62;79.45;101891.74;1664852;86;21109;-72
2021/11/12 08:27:11;;;;;;;13.43;4.37;;;;;;;9.76;79.28;101877.02;1664812;86;21579;-73
2021/11/12 08:40:02;;;;;;;16.73;4.47;;;;;;;10.09;78.35;101875.93;1664938;86;21149;-72
2021/11/12 08:42:29;;;;;;;16.77;3.90;;;;;;;10.18;78.13;101882.45;1662798;86;21584;-72
2021/11/12 08:44:57;;;;;;;20.60;4.35;;;;;;;10.25;77.95;101878.85;1663881;86;21175;-72
2021/11/12 08:47:26;;;;;;;16.12;4.30;;;;;;;10.34;77.72;101879.69;1664056;86;21078;-72
2021/11/12 08:49:48;;;;;;;14.10;3.67;;;;;;;10.43;77.47;101875.25;1663767;84;21799;-72
2021/11/12 08:52:16;;;;;;;21.95;6.50;;;;;;;10.48;77.25;101872.41;1662293;86;21094;-72
2021/11/12 08:54:45;;;;;;;17.10;4.35;;;;;;;10.50;76.95;101869.00;1698649;84;21367;-72
2021/11/12 08:57:12;;;;;;;16.70;4.08;;;;;;;10.55;76.81;101869.61;1698336;84;21125;-72
2021/11/12 08:59:42;;;;;;;15.13;4.00;;;;;;;10.58;76.56;101870.64;1698613;84;21073;-72
2021/11/12 09:02:18;;;;;;;15.55;3.12;;;;;;;10.63;76.43;101867.80;1698793;84;22541;-72
2021/11/12 09:04:44;;;;;;;13.10;3.25;;;;;;;10.68;76.06;101863.64;1698615;84;21126;-72
2021/11/12 09:07:11;;;;;;;12.70;3.50;;;;;;;10.69;75.55;101861.89;1698734;84;21102;-72
2021/11/12 09:09:39;;;;;;;16.67;3.83;;;;;;;10.70;75.64;101861.96;1698931;84;21125;-72
2021/11/12 09:12:09;;;;;;;12.35;4.10;;;;;;;10.76;75.66;101865.27;1698389;84;21120;-72
2021/11/12 09:14:40;;;;;;;20.77;7.25;;;;;;;10.85;75.59;101870.93;1698739;84;22708;-72
2021/11/12 09:17:07;;;;;;;17.87;4.45;;;;;;;10.98;75.60;101872.73;1698376;83;20999;-72
2021/11/12 09:19:44;;;;;;;13.03;4.55;;;;;;;11.02;75.33;101853.61;1698623;84;21425;-72
2021/11/12 09:22:03;;;;;;;16.40;4.67;;;;;;;11.22;75.14;101868.50;1698651;83;21051;-72
2021/11/12 09:24:30;;;;;;;17.42;4.03;;;;;;;11.35;74.93;101867.22;1698820;84;21046;-72
2021/11/12 09:26:57;;;;;;;12.43;3.75;;;;;;;11.46;74.81;101861.06;1698851;84;22598;-72
2021/11/12 09:29:23;;;;;;;17.23;4.05;;;;;;;11.53;74.35;101855.19;1698590;83;21085;-72
2021/11/12 09:31:51;;;;;;;17.23;4.85;;;;;;;11.59;74.21;101850.14;1698680;83;21109;-72
2021/11/12 09:34:17;;;;;;;20.02;5.58;;;;;;;11.65;74.08;101849.05;1698568;83;21532;-72
2021/11/12 09:36:45;;;;;;;11.97;3.90;;;;;;;11.74;73.80;101855.11;1698553;83;21085;-72
2021/11/12 09:39:12;;;;;;;15.30;4.17;;;;;;;11.81;73.75;101858.89;1698627;84;21746;-72
2021/11/12 09:41:38;;;;;;;18.25;3.67;;;;;;;11.89;73.46;101863.14;1698457;84;21066;-72
2021/11/12 09:44:06;;;;;;;13.53;4.65;;;;;;;11.93;73.19;101862.01;1698639;84;21070;-72
2021/11/12 09:46:33;;;;;;;17.67;5.17;;;;;;;11.99;73.09;101859.63;1698559;84;21181;-72
2021/11/12 09:49:02;;;;;;;19.10;5.08;;;;;;;12.04;72.77;101866.37;1671827;84;21089;-72
2021/11/12 09:51:28;;;;;;;22.00;9.90;;;;;;;12.08;72.55;101868.27;1694378;83;21750;-72
2021/11/12 09:53:54;;;;;;;16.27;5.22;;;;;;;12.12;72.53;101859.63;1690633;83;21076;-72
2021/11/12 09:56:21;;;;;;;14.80;4.30;;;;;;;12.21;72.24;101861.70;1690569;84;21084;-72
2021/11/12 09:58:49;;;;;;;19.80;4.55;;;;;;;12.30;72.02;101865.11;1690265;84;21332;-72
2021/11/12 10:01:16;;;;;;;12.98;3.65;;;;;;;12.33;71.67;101854.64;1690410;83;21605;-72
2021/11/12 10:03:46;;;;;;;14.13;3.95;;;;;;;12.38;71.37;101857.91;1690437;84;21724;-72
2021/11/12 10:06:25;;;;;;;19.50;7.20;;;;;;;12.39;71.18;101857.52;1690410;83;21092;-73
2021/11/12 10:08:52;;;;;;;15.10;5.58;;;;;;;12.40;71.06;101850.05;1690717;83;21644;-73
2021/11/12 10:11:28;;;;;;;14.83;5.37;;;;;;;12.41;70.81;101850.11;1690171;83;21022;-73
2021/11/12 10:14:01;;;;;;;24.15;10.93;;;;;;;12.42;70.45;101847.05;1690224;84;21124;-73
2021/11/12 10:16:35;;;;;;;32.83;15.63;;;;;;;12.42;70.27;101845.72;1690652;83;22440;-73
2021/11/12 10:19:11;;;;;;;21.95;9.40;;;;;;;12.42;70.14;101845.30;1690302;83;21072;-73
2021/11/12 10:21:47;;;;;;;29.00;14.07;;;;;;;12.43;70.11;101842.25;1690680;84;21100;-73
2021/11/12 10:24:22;;;;;;;16.95;6.65;;;;;;;12.46;70.10;101850.26;1690327;83;21084;-73
2021/11/12 10:26:55;;;;;;;21.52;7.97;;;;;;;12.49;69.95;101858.73;1690448;83;21100;-73
2021/11/12 10:29:31;;;;;;;60.20;30.77;;;;;;;12.48;69.94;101855.20;1690807;84;21712;-73
2021/11/12 10:32:05;;;;;;;17.30;6.97;;;;;;;12.52;69.88;101857.10;1690311;83;21061;-73
2021/11/12 10:34:36;;;;;;;18.95;5.35;;;;;;;12.53;69.52;101852.27;1690328;83;21077;-73
2021/11/12 10:37:17;;;;;;;21.02;6.95;;;;;;;12.50;69.40;101847.30;1689902;84;21145;-73
2021/11/12 10:39:50;;;;;;;19.95;8.03;;;;;;;12.52;69.30;101846.94;1690526;83;21526;-74
2021/11/12 10:42:29;;;;;;;42.20;15.88;;;;;;;12.47;69.01;101842.83;1690479;84;21186;-73
2021/11/12 10:44:59;;;;;;;28.83;9.23;;;;;;;12.42;68.98;101840.02;1690569;83;21394;-73
2021/11/12 10:47:29;;;;;;;56.65;23.77;;;;;;;12.41;68.79;101841.30;1690506;83;21077;-73
2021/11/12 10:49:59;;;;;;;57.78;24.87;;;;;;;12.37;68.75;101840.30;1690486;83;21092;-73
2021/11/12 10:52:28;;;;;;;31.85;13.05;;;;;;;12.35;68.61;101845.03;1690331;83;21073;-73
2021/11/12 10:55:09;;;;;;;27.58;9.50;;;;;;;12.33;68.66;101842.76;1690494;83;21805;-73
2021/11/12 10:57:47;;;;;;;30.65;11.80;;;;;;;12.33;68.70;101837.48;1662676;84;21606;-72
2021/11/12 11:00:24;;;;;;;27.62;9.15;;;;;;;12.33;68.63;101841.44;1676601;84;21352;-72
2021/11/12 11:02:58;;;;;;;25.50;9.08;;;;;;;12.33;68.79;101830.88;1690373;84;21085;-72
2021/11/12 11:05:28;;;;;;;14.93;5.67;;;;;;;12.31;68.38;101836.53;1690221;84;21101;-72
2021/11/12 11:08:04;;;;;;;22.42;6.67;;;;;;;12.28;68.33;101836.01;1690276;83;22633;-72
2021/11/12 11:10:34;;;;;;;25.02;8.65;;;;;;;12.27;68.37;101834.63;1690382;84;21066;-72
2021/11/12 11:13:12;;;;;;;25.30;9.65;;;;;;;12.25;68.33;101833.25;1690387;84;21697;-72
2021/11/12 11:15:43;;;;;;;15.30;5.62;;;;;;;12.25;68.28;101835.89;1690342;83;21065;-73
2021/11/12 11:18:18;;;;;;;16.05;4.62;;;;;;;12.24;68.17;101837.64;1685700;83;21133;-73
2021/11/12 11:21:00;;;;;;;10.88;3.65;;;;;;;12.22;67.95;101841.97;1690632;83;22467;-73
2021/11/12 11:23:29;;;;;;;12.75;4.10;;;;;;;12.19;67.80;101839.64;1690506;83;21156;-73
2021/11/12 11:26:03;;;;;;;25.32;9.75;;;;;;;12.19;67.85;101839.64;1690678;84;21077;-73
2021/11/12 11:28:31;;;;;;;22.22;8.95;;;;;;;12.19;67.81;101843.59;1690615;84;21176;-73
2021/11/12 11:31:01;;;;;;;17.37;6.65;;;;;;;12.17;67.75;101845.29;1690609;84;21555;-73
2021/11/12 11:33:31;;;;;;;17.35;7.25;;;;;;;12.15;67.79;101854.47;1690591;83;21804;-73
2021/11/12 11:35:57;;;;;;;14.28;4.85;;;;;;;12.16;67.80;101850.08;1661119;84;21606;-73
2021/11/12 11:38:30;;;;;;;12.65;4.28;;;;;;;12.18;67.67;101852.34;1690593;84;21100;-73
2021/11/12 11:40:57;;;;;;;20.00;5.17;;;;;;;12.19;67.65;101844.48;1690498;83;22178;-72
2021/11/12 11:43:24;;;;;;;33.33;13.15;;;;;;;12.20;67.46;101851.58;1690520;83;21104;-73
2021/11/12 11:45:53;;;;;;;18.50;5.37;;;;;;;12.19;67.44;101855.05;1690520;83;21784;-72
2021/11/12 11:48:20;;;;;;;17.65;8.28;;;;;;;12.18;67.38;101858.55;1690595;83;21156;-72
2021/11/12 11:50:53;;;;;;;21.90;9.60;;;;;;;12.18;67.25;101851.95;1690433;83;21112;-72
2021/11/12 11:53:31;;;;;;;22.62;5.15;;;;;;;12.17;67.20;101853.20;1690325;83;21033;-72
2021/11/12 11:56:26;;;;;;;14.03;4.10;;;;;;;12.15;67.11;101847.86;1690409;84;21017;-72
2021/11/12 11:58:54;;;;;;;11.65;3.92;;;;;;;12.10;67.03;101854.71;1690537;83;21779;-73
2021/11/12 12:01:46;;;;;;;23.77;7.00;;;;;;;12.04;67.08;101851.86;1690227;84;21060;-72
2021/11/12 12:04:18;;;;;;;26.48;5.12;;;;;;;12.05;67.28;101849.28;1690313;83;21085;-73
2021/11/12 12:07:13;;;;;;;19.98;6.78;;;;;;;12.09;67.27;101845.02;1690779;83;21171;-73
2021/11/12 12:09:51;;;;;;;23.85;6.30;;;;;;;12.13;67.31;101844.70;1674837;83;21065;-73
2021/11/12 12:12:35;;;;;;;14.53;4.15;;;;;;;12.10;67.13;101840.63;1690774;84;21816;-73
2021/11/12 12:15:15;;;;;;;27.70;9.35;;;;;;;12.02;66.91;101850.47;1690192;83;21108;-74
2021/11/12 12:17:50;;;;;;;44.20;16.32;;;;;;;11.86;66.89;101851.63;1690469;83;21081;-74
2021/11/12 13:23:16;;;;;;;22.62;7.10;;;;;;;10.57;67.94;101830.69;1692795;84;22837;-73
2021/11/12 13:26:03;;;;;;;14.30;5.08;;;;;;;10.51;68.02;101829.13;1692620;84;21104;-73
2021/11/12 13:28:40;;;;;;;26.87;10.95;;;;;;;10.45;68.08;101828.84;1692280;84;21129;-72
2021/11/12 13:31:15;;;;;;;53.50;11.53;;;;;;;10.36;68.10;101833.70;1692940;84;21046;-72
2021/11/12 13:33:53;;;;;;;35.48;8.83;;;;;;;10.26;68.17;101835.89;1692858;84;21085;-72
2021/11/12 13:36:34;;;;;;;26.25;9.25;;;;;;;10.16;68.25;101837.66;1692818;84;23077;-72
2021/11/12 13:39:19;;;;;;;18.42;6.60;;;;;;;10.08;68.38;101839.95;1691939;84;21082;-72
2021/11/12 13:41:51;;;;;;;29.55;12.45;;;;;;;10.00;68.47;101845.27;1692524;84;21094;-72
2021/11/12 13:44:22;;;;;;;64.80;44.40;;;;;;;9.91;68.61;101837.88;1692756;84;21097;-72
2021/11/12 13:47:11;;;;;;;39.42;25.23;;;;;;;9.82;68.75;101830.89;1637004;86;21098;-72
2021/11/12 13:49:45;;;;;;;29.25;12.30;;;;;;;9.80;68.91;101841.76;1667323;84;22780;-72
2021/11/12 13:52:28;;;;;;;17.75;6.80;;;;;;;9.75;69.03;101839.33;1693185;84;21587;-72
2021/11/12 13:55:09;;;;;;;19.20;10.10;;;;;;;9.71;69.14;101846.17;1695972;84;21081;-72
2021/11/12 13:57:36;;;;;;;20.62;11.73;;;;;;;9.68;69.23;101846.44;1695410;84;21077;-72
2021/11/12 14:00:10;;;;;;;30.35;13.10;;;;;;;9.63;69.39;101846.23;1695724;84;21034;-72
2021/11/12 14:03:10;;;;;;;20.80;8.78;;;;;;;9.60;69.48;101847.83;1695503;84;22493;-72
2021/11/12 14:05:39;;;;;;;25.85;12.70;;;;;;;9.59;69.60;101851.27;1662588;84;21125;-72
2021/11/12 14:08:13;;;;;;;19.27;6.78;;;;;;;9.55;69.73;101860.73;1695713;83;21085;-72
2021/11/12 14:10:43;;;;;;;15.68;6.42;;;;;;;9.52;69.82;101854.04;1695713;83;21572;-72
2021/11/12 14:13:15;;;;;;;17.32;6.05;;;;;;;9.49;69.84;101857.83;1695482;84;20979;-72
2021/11/12 14:16:14;;;;;;;21.12;5.35;;;;;;;9.43;69.90;101853.61;1695509;83;21920;-72
2021/11/12 14:18:48;;;;;;;19.67;5.83;;;;;;;9.36;70.00;101855.03;1694858;84;21171;-72
2021/11/12 14:21:32;;;;;;;22.22;5.90;;;;;;;9.29;70.09;101847.28;1693547;84;21077;-72
2021/11/12 14:26:57;;;;;;;12.60;4.72;;;;;;;9.18;70.26;101847.57;1695586;84;21153;-72
2021/11/12 14:29:55;;;;;;;19.17;4.28;;;;;;;9.11;70.34;101843.77;1695097;84;22559;-73
2021/11/12 14:35:22;;;;;;;24.23;7.40;;;;;;;8.94;70.60;101839.90;1695560;84;21032;-72
2021/11/12 14:44:09;;;;;;;18.70;5.53;;;;;;;8.81;71.09;101845.80;1669359;84;21086;-73
2021/11/12 14:46:40;;;;;;;20.43;6.28;;;;;;;8.79;71.25;101847.45;1693340;84;21638;-72
2021/11/12 14:51:57;;;;;;;13.00;5.05;;;;;;;8.69;71.40;101839.11;1695626;84;21614;-72
2021/11/12 14:54:11;;;;;;;15.23;4.95;;;;;;;8.65;71.39;101841.09;1683977;83;21066;-72
2021/11/12 14:56:46;;;;;;;20.25;5.12;;;;;;;8.61;71.45;101843.47;1691625;83;21607;-72
2021/11/12 14:59:16;;;;;;;19.15;5.53;;;;;;;8.56;71.52;101840.20;1667040;84;21093;-72
2021/11/12 15:01:43;;;;;;;20.90;4.80;;;;;;;8.51;71.57;101835.55;1691641;84;21651;-72
2021/11/12 15:04:10;;;;;;;22.50;8.58;;;;;;;8.45;71.67;101833.94;1691732;84;21207;-72
2021/11/12 15:06:39;;;;;;;792.77;529.02;;;;;;;8.38;71.72;101833.98;1691876;84;21117;-73
2021/11/12 15:11:52;;;;;;;77.35;44.73;;;;;;;8.23;71.86;101835.83;1691798;84;21077;-73
2021/11/12 15:14:25;;;;;;;52.80;31.60;;;;;;;8.13;71.98;101841.90;1691660;84;21097;-73
2021/11/12 15:16:47;;;;;;;49.65;27.65;;;;;;;8.07;72.08;101836.73;1690753;83;21117;-75
2021/11/12 15:19:16;;;;;;;56.42;31.77;;;;;;;7.99;72.19;101833.70;1691918;83;21099;-72
2021/11/12 15:29:28;;;;;;;31.45;12.43;;;;;;;7.66;72.66;101835.41;1692232;84;21079;-74
2021/11/12 15:32:05;;;;;;;27.10;11.28;;;;;;;7.56;72.78;101833.64;1691872;84;21099;-73
2021/11/12 15:34:29;;;;;;;27.22;10.93;;;;;;;7.49;72.92;101839.73;1691657;83;21795;-72
2021/11/12 15:39:39;;;;;;;29.40;10.35;;;;;;;7.28;73.04;101843.00;1716364;81;21094;-72
2021/11/12 15:42:21;;;;;;;28.57;10.78;;;;;;;7.15;73.17;101837.86;1666784;84;22280;-71
2021/11/12 15:44:34;;;;;;;32.23;12.43;;;;;;;7.09;73.33;101848.89;1707644;81;21103;-72
2021/11/12 15:47:09;;;;;;;31.33;11.48;;;;;;;7.00;73.57;101847.06;1692224;83;22742;-72
2021/11/12 15:49:34;;;;;;;39.83;13.93;;;;;;;6.94;73.72;101843.69;1667676;83;22079;-72
2021/11/12 15:52:11;;;;;;;33.85;15.60;;;;;;;6.87;73.91;101848.48;1692218;83;21104;-73
2021/11/12 16:00:17;;;;;;;57.53;25.30;;;;;;;6.68;74.40;101855.67;1688709;83;22120;-73
2021/11/12 16:08:13;;;;;;;53.45;25.68;;;;;;;6.56;74.91;101855.87;1724743;82;21358;-73
2021/11/12 16:10:53;;;;;;;50.30;25.88;;;;;;;6.51;75.02;101854.69;1714425;82;21070;-73
2021/11/12 16:13:15;;;;;;;57.30;25.60;;;;;;;6.46;75.12;101858.73;1716672;82;21777;-73
2021/11/12 16:15:48;;;;;;;49.77;26.15;;;;;;;6.40;75.20;101856.27;1714224;82;21074;-73
2021/11/12 16:26:04;;;;;;;62.80;27.65;;;;;;;6.27;75.56;101852.81;1713668;83;22487;-82
2021/11/12 16:28:39;;;;;;;54.83;27.27;;;;;;;6.23;75.59;101844.80;1713982;81;21031;-82
2021/11/12 16:31:01;;;;;;;67.80;36.05;;;;;;;6.17;75.53;101855.28;1715349;82;21031;-82
2021/11/12 16:33:28;;;;;;;124.40;58.20;;;;;;;6.12;75.61;101855.40;1714111;82;21097;-83
2021/11/12 16:36:00;;;;;;;70.25;39.45;;;;;;;6.07;75.65;101852.94;1713962;82;21618;-82
2021/11/12 16:38:28;;;;;;;78.97;39.98;;;;;;;6.01;75.65;101850.44;1724086;83;21894;-82